createdAt,value
2023-02-25T00:01:08.347Z,99097.44
2023-02-25T00:03:57.569Z,99101.06
2023-02-25T00:06:46.644Z,99107.81
2023-02-25T00:09:35.186Z,99109.06
2023-02-25T00:12:25.054Z,99107.88
2023-02-25T00:15:13.576Z,99105.41
2023-02-25T00:18:02.100Z,99121.38
2023-02-25T00:20:50.890Z,99121.22
2023-02-25T00:23:39.327Z,99127.16
2023-02-25T00:26:27.874Z,99115.69
2023-02-25T00:29:18.455Z,99131.25
2023-02-25T00:32:07.047Z,99124.88
2023-02-25T00:34:55.682Z,99118.94
2023-02-25T00:37:44.210Z,99112.81
2023-02-25T00:40:32.711Z,99111.78
2023-02-25T00:43:22.111Z,99117.72
2023-02-25T00:46:12.463Z,99125.75
2023-02-25T00:49:01.684Z,99113.66
2023-02-25T00:51:50.208Z,99112.44
2023-02-25T00:54:39.533Z,99109.97
2023-02-25T00:57:28.002Z,99100.34
2023-02-25T01:00:17.379Z,99101.75
2023-02-25T01:03:07.383Z,99112.84
2023-02-25T01:05:55.903Z,99121.88
2023-02-25T01:08:44.714Z,99109.97
2023-02-25T01:11:35.618Z,99130.88
2023-02-25T01:14:25.492Z,99101.38
2023-02-25T01:17:13.958Z,99136.84
2023-02-25T01:20:11.261Z,99140.34
2023-02-25T01:22:59.781Z,99147.91
2023-02-25T01:25:48.293Z,99156.75
2023-02-25T01:28:36.811Z,99150.38
2023-02-25T01:31:29.449Z,99137.25
2023-02-25T01:34:18.939Z,99162.06
2023-02-25T01:37:08.904Z,99152.63
2023-02-25T01:39:57.425Z,99155.31
2023-02-25T01:42:46.744Z,99161.88
2023-02-25T01:45:35.653Z,99164.53
2023-02-25T01:48:26.421Z,99065.06
2023-02-25T01:51:14.875Z,99147.31
2023-02-25T01:54:06.692Z,99151.41
2023-02-25T01:56:56.473Z,99133.13
2023-02-25T01:59:45.299Z,99166.97
2023-02-25T02:02:34.294Z,99152.44
2023-02-25T02:05:25.218Z,99141.56
2023-02-25T02:08:14.054Z,99157.56
2023-02-25T02:11:05.806Z,99141.97
2023-02-25T02:13:56.306Z,99150.19
2023-02-25T02:17:02.247Z,99152.41
2023-02-25T02:20:11.449Z,99145.84
2023-02-25T02:23:21.970Z,99160.00
2023-02-25T02:26:38.904Z,99148.09
2023-02-25T02:30:05.093Z,99154.66
2023-02-25T02:32:58.306Z,99148.94
2023-02-25T02:35:51.392Z,99156.50
2023-02-25T02:38:45.524Z,99157.34
2023-02-25T02:41:36.640Z,99156.06
2023-02-25T02:44:28.505Z,99158.53
2023-02-25T02:47:21.658Z,99162.88
2023-02-25T02:50:15.295Z,99165.50
2023-02-25T02:53:07.793Z,99171.22
2023-02-25T02:55:57.700Z,99159.13
2023-02-25T02:58:49.043Z,99183.09
2023-02-25T03:01:41.618Z,99188.63
2023-02-25T03:04:32.209Z,99195.56
2023-02-25T03:07:23.177Z,99182.47
2023-02-25T03:10:15.451Z,99193.28
2023-02-25T03:13:04.694Z,99200.50
2023-02-25T03:15:53.565Z,99207.81
2023-02-25T03:18:45.241Z,99206.19
2023-02-25T03:21:39.641Z,99206.97
2023-02-25T03:24:34.121Z,99204.03
2023-02-25T03:27:27.781Z,99202.97
2023-02-25T03:30:23.061Z,99206.41
2023-02-25T03:33:15.335Z,99167.78
2023-02-25T03:36:09.028Z,99206.59
2023-02-25T03:38:59.654Z,99202.06
2023-02-25T03:41:52.697Z,99205.66
2023-02-25T03:44:47.314Z,99213.56
2023-02-25T03:47:37.107Z,99179.00
2023-02-25T03:50:28.983Z,99220.69
2023-02-25T03:53:17.557Z,99218.91
2023-02-25T03:56:08.562Z,99219.72
2023-02-25T03:58:58.377Z,99226.59
2023-02-25T04:01:49.625Z,99229.03
2023-02-25T04:04:38.250Z,99233.53
2023-02-25T04:07:27.162Z,99248.84
2023-02-25T04:10:17.988Z,99238.63
2023-02-25T04:13:06.465Z,99246.34
2023-02-25T04:15:56.499Z,99231.53
2023-02-25T04:18:45.079Z,99236.38
2023-02-25T04:21:35.847Z,99220.69
2023-02-25T04:24:24.318Z,99235.50
2023-02-25T04:27:15.529Z,99236.84
2023-02-25T04:30:04.281Z,99216.25
2023-02-25T04:32:54.272Z,99218.47
2023-02-25T04:35:42.776Z,99234.28
2023-02-25T04:38:31.258Z,99231.19
2023-02-25T04:41:19.857Z,99235.22
2023-02-25T04:44:09.624Z,99231.69
2023-02-25T04:46:58.139Z,99235.88
2023-02-25T04:49:47.989Z,99213.22
2023-02-25T04:52:36.766Z,99173.81
2023-02-25T04:55:25.257Z,99230.81
2023-02-25T04:58:14.068Z,99232.94
2023-02-25T05:01:03.516Z,99239.72
2023-02-25T05:03:56.750Z,99243.38
2023-02-25T05:06:46.718Z,99247.50
2023-02-25T05:09:35.985Z,99246.53
2023-02-25T05:12:24.482Z,99255.44
2023-02-25T05:15:13.289Z,99242.13
2023-02-25T05:18:01.959Z,99240.91
2023-02-25T05:20:50.387Z,99234.72
2023-02-25T05:23:40.362Z,99237.03
2023-02-25T05:26:28.879Z,99237.50
2023-02-25T05:29:17.568Z,99243.63
2023-02-25T05:32:06.632Z,99239.50
2023-02-25T05:34:55.159Z,99248.13
2023-02-25T05:37:43.612Z,99238.94
2023-02-25T05:40:33.443Z,99213.47
2023-02-25T05:43:22.353Z,99234.19
2023-02-25T05:46:13.136Z,99239.19
2023-02-25T05:49:01.668Z,99233.69
2023-02-25T05:51:50.242Z,99235.75
2023-02-25T05:54:38.747Z,99241.28
2023-02-25T05:57:28.895Z,99238.41
2023-02-25T06:00:21.450Z,99243.34
2023-02-25T06:03:10.051Z,99249.50
2023-02-25T06:05:58.587Z,99252.91
2023-02-25T06:08:47.898Z,99250.63
2023-02-25T06:11:36.951Z,99270.09
2023-02-25T06:14:26.908Z,99269.03
2023-02-25T06:17:15.336Z,99282.75
2023-02-25T06:20:05.930Z,99279.28
2023-02-25T06:22:54.457Z,99278.91
2023-02-25T06:25:42.998Z,99270.72
2023-02-25T06:28:31.881Z,99279.50
2023-02-25T06:31:23.685Z,99282.25
2023-02-25T06:34:12.260Z,99281.19
2023-02-25T06:37:00.831Z,99286.09
2023-02-25T06:39:49.443Z,99292.22
2023-02-25T06:42:37.914Z,99293.44
2023-02-25T06:45:26.529Z,99284.03
2023-02-25T06:48:16.338Z,99292.88
2023-02-25T06:51:09.125Z,99252.81
2023-02-25T06:53:57.558Z,99301.28
2023-02-25T06:56:46.241Z,99301.78
2023-02-25T06:59:35.653Z,99311.16
2023-02-25T07:02:24.174Z,99321.22
2023-02-25T07:05:13.992Z,99252.06
2023-02-25T07:08:02.516Z,99325.22
2023-02-25T07:10:50.996Z,99325.31
2023-02-25T07:13:39.512Z,99294.28
2023-02-25T07:16:29.914Z,99318.84
2023-02-25T07:19:18.412Z,99317.06
2023-02-25T07:22:09.890Z,99315.41
2023-02-25T07:24:58.475Z,99332.34
2023-02-25T07:27:47.081Z,99327.25
2023-02-25T07:30:36.918Z,99338.13
2023-02-25T07:33:25.387Z,99333.69
2023-02-25T07:36:14.287Z,99320.31
2023-02-25T07:39:04.760Z,99309.16
2023-02-25T07:41:53.584Z,99321.28
2023-02-25T07:44:43.145Z,99331.00
2023-02-25T07:47:31.674Z,99333.63
2023-02-25T07:50:20.371Z,99323.31
2023-02-25T07:53:08.838Z,99334.34
2023-02-25T07:55:58.644Z,99331.16
2023-02-25T07:58:47.172Z,99325.91
2023-02-25T08:01:35.768Z,99323.22
2023-02-25T08:04:24.548Z,99320.88
2023-02-25T08:07:13.043Z,99319.06
2023-02-25T08:10:01.722Z,99317.38
2023-02-25T08:12:51.588Z,99324.78
2023-02-25T08:15:42.016Z,99322.91
2023-02-25T08:18:30.583Z,99328.81
2023-02-25T08:21:21.725Z,99327.97
2023-02-25T08:24:10.408Z,99326.41
2023-02-25T08:26:59.162Z,99331.78
2023-02-25T08:29:49.310Z,99330.97
2023-02-25T08:32:38.250Z,99330.94
2023-02-25T08:35:27.316Z,99333.81
2023-02-25T08:38:16.173Z,99327.84
2023-02-25T08:41:05.038Z,99325.41
2023-02-25T08:43:55.300Z,99322.09
2023-02-25T08:46:45.889Z,99311.22
2023-02-25T08:49:34.350Z,99327.44
2023-02-25T08:52:22.967Z,99328.69
2023-02-25T08:55:14.916Z,99310.50
2023-02-25T08:58:03.467Z,99311.34
2023-02-25T09:00:55.135Z,99320.41
2023-02-25T09:03:53.272Z,99321.00
2023-02-25T09:06:41.908Z,99323.47
2023-02-25T09:09:30.589Z,99318.56
2023-02-25T09:12:19.094Z,99307.34
2023-02-25T09:15:09.191Z,99313.91
2023-02-25T09:17:57.623Z,99316.56
2023-02-25T09:20:51.978Z,99316.78
2023-02-25T09:23:40.494Z,99310.19
2023-02-25T09:26:29.226Z,99312.47
2023-02-25T09:29:17.987Z,99319.44
2023-02-25T09:32:06.959Z,99315.31
2023-02-25T09:34:56.075Z,99308.97
2023-02-25T09:37:45.937Z,99310.41
2023-02-25T09:40:34.583Z,99306.13
2023-02-25T09:43:26.761Z,99309.00
2023-02-25T09:46:19.461Z,99312.88
2023-02-25T09:49:13.147Z,99304.25
2023-02-25T09:52:05.864Z,99298.31
2023-02-25T09:54:57.408Z,99312.28
2023-02-25T09:57:48.945Z,99307.34
2023-02-25T10:00:42.606Z,99305.72
2023-02-25T10:03:42.455Z,99291.53
2023-02-25T10:06:34.097Z,99302.03
2023-02-25T10:09:30.478Z,99313.94
2023-02-25T10:12:28.145Z,99310.66
2023-02-25T10:15:26.073Z,99295.25
2023-02-25T10:18:22.716Z,99312.31
2023-02-25T10:21:19.552Z,99304.47
2023-02-25T10:24:20.370Z,99310.84
2023-02-25T10:27:13.084Z,99314.94
2023-02-25T10:30:06.929Z,99274.28
2023-02-25T10:32:55.654Z,99311.66
2023-02-25T10:35:44.191Z,99291.78
2023-02-25T10:38:39.523Z,99296.06
2023-02-25T10:41:28.320Z,99286.00
2023-02-25T10:44:16.817Z,99281.50
2023-02-25T10:47:07.885Z,99290.94
2023-02-25T10:50:14.739Z,99296.06
2023-02-25T10:53:05.211Z,99246.38
2023-02-25T10:55:54.826Z,99297.47
2023-02-25T10:58:47.126Z,99304.63
2023-02-25T11:01:37.389Z,99291.91
2023-02-25T11:04:31.271Z,99277.97
2023-02-25T11:07:32.955Z,99261.34
2023-02-25T11:10:23.919Z,99292.38
2023-02-25T11:13:29.013Z,99289.91
2023-02-25T11:16:18.939Z,99245.78
2023-02-25T11:19:15.437Z,99286.22
2023-02-25T11:22:10.826Z,99295.25
2023-02-25T11:25:00.629Z,99297.09
2023-02-25T11:27:55.955Z,99290.75
2023-02-25T11:30:45.786Z,99282.75
2023-02-25T11:33:36.491Z,99290.75
2023-02-25T11:36:26.556Z,99297.72
2023-02-25T11:39:22.108Z,99310.25
2023-02-25T11:42:23.097Z,99308.78
2023-02-25T11:45:18.177Z,99301.59
2023-02-25T11:48:17.536Z,99301.19
2023-02-25T11:51:14.031Z,99286.22
2023-02-25T11:54:14.112Z,99265.44
2023-02-25T11:57:09.641Z,99293.34
2023-02-25T12:00:11.373Z,99246.84
2023-02-25T12:03:25.209Z,99301.63
2023-02-25T12:06:24.099Z,99302.63
2023-02-25T12:09:37.070Z,99302.97
2023-02-25T12:12:59.467Z,99311.53
2023-02-25T12:16:14.271Z,99304.59
2023-02-25T12:19:29.359Z,99306.00
2023-02-25T12:22:37.414Z,99298.22
2023-02-25T12:25:33.773Z,99310.75
2023-02-25T12:28:45.441Z,99303.16
2023-02-25T12:31:56.931Z,99268.28
2023-02-25T12:35:06.793Z,99302.81
2023-02-25T12:38:34.023Z,99304.91
2023-02-25T12:41:37.722Z,99291.16
2023-02-25T12:44:44.349Z,99289.59
2023-02-25T12:47:46.847Z,99287.97
2023-02-25T12:50:43.673Z,99276.50
2023-02-25T12:53:46.706Z,99281.84
2023-02-25T12:57:04.499Z,99278.59
2023-02-25T13:00:07.539Z,99260.97
2023-02-25T13:03:21.153Z,99270.84
2023-02-25T13:06:37.742Z,99261.38
2023-02-25T13:09:49.027Z,99263.84
2023-02-25T13:12:57.664Z,99257.91
2023-02-25T13:15:53.981Z,99247.81
2023-02-25T13:18:50.864Z,99251.94
2023-02-25T13:21:54.995Z,99245.97
2023-02-25T13:24:49.074Z,99251.28
2023-02-25T13:28:02.932Z,99255.81
2023-02-25T13:30:58.042Z,99247.81
2023-02-25T13:33:58.782Z,99226.88
2023-02-25T13:36:59.181Z,99248.25
2023-02-25T13:40:06.232Z,99254.63
2023-02-25T13:43:00.830Z,99254.59
2023-02-25T13:46:07.161Z,99247.81
2023-02-25T13:49:26.072Z,99250.06
2023-02-25T13:52:27.746Z,99242.66
2023-02-25T13:55:35.170Z,99240.78
2023-02-25T13:58:54.748Z,99246.31
2023-02-25T14:01:51.728Z,99260.47
2023-02-25T14:04:57.093Z,99248.16
2023-02-25T14:08:07.912Z,99253.72
2023-02-25T14:11:06.530Z,99263.28
2023-02-25T14:14:19.914Z,99248.41
2023-02-25T14:17:24.492Z,99247.41
2023-02-25T14:20:26.447Z,99242.72
2023-02-25T14:23:18.086Z,99234.91
2023-02-25T14:26:23.612Z,99235.97
2023-02-25T14:29:22.287Z,99240.50
2023-02-25T14:32:27.185Z,99233.38
2023-02-25T14:35:30.144Z,99246.94
2023-02-25T14:38:27.343Z,99251.66
2023-02-25T14:41:29.363Z,99247.38
2023-02-25T14:44:20.953Z,99239.97
2023-02-25T14:47:12.450Z,99248.81
2023-02-25T14:50:05.742Z,99243.69
2023-02-25T14:53:06.458Z,99238.75
2023-02-25T14:56:09.392Z,99247.84
2023-02-25T14:59:28.684Z,99248.03
2023-02-25T15:02:27.195Z,99248.66
2023-02-25T15:05:45.590Z,99254.41
2023-02-25T15:09:03.740Z,99255.63
2023-02-25T15:12:16.669Z,99264.88
2023-02-25T15:15:21.292Z,99272.84
2023-02-25T15:18:27.951Z,99277.19
2023-02-25T15:21:39.710Z,99272.03
2023-02-25T15:24:40.756Z,99282.09
2023-02-25T15:27:44.261Z,99285.38
2023-02-25T15:31:06.074Z,99288.88
2023-02-25T15:33:56.093Z,99288.28
2023-02-25T15:36:48.517Z,99305.09
2023-02-25T15:39:53.998Z,99297.50
2023-02-25T15:42:47.953Z,99288.28
2023-02-25T15:45:39.407Z,99296.91
2023-02-25T15:48:32.960Z,99292.59
2023-02-25T15:51:42.112Z,99283.97
2023-02-25T15:54:51.721Z,99308.38
2023-02-25T15:57:41.815Z,99305.72
2023-02-25T16:01:00.836Z,99307.78
2023-02-25T16:03:49.494Z,99311.06
2023-02-25T16:06:40.644Z,99308.59
2023-02-25T16:09:29.241Z,99290.53
2023-02-25T16:12:19.440Z,99316.59
2023-02-25T16:15:12.495Z,99319.03
2023-02-25T16:18:09.904Z,99329.91
2023-02-25T16:21:01.552Z,99330.34
2023-02-25T16:23:50.151Z,99324.97
2023-02-25T16:26:45.119Z,99342.22
2023-02-25T16:29:49.747Z,99353.84
2023-02-25T16:32:44.484Z,99363.72
2023-02-25T16:35:35.641Z,99372.28
2023-02-25T16:38:31.763Z,99371.19
2023-02-25T16:41:22.345Z,99378.97
2023-02-25T16:44:18.331Z,99386.38
2023-02-25T16:47:22.426Z,99394.13
2023-02-25T16:50:15.828Z,99395.66
2023-02-25T16:53:05.118Z,99412.38
2023-02-25T16:55:59.387Z,99423.22
2023-02-25T16:59:00.870Z,99424.94
2023-02-25T17:01:55.453Z,99414.50
2023-02-25T17:04:47.903Z,99419.53
2023-02-25T17:07:36.869Z,99360.19
2023-02-25T17:10:27.933Z,99401.53
2023-02-25T17:13:20.334Z,99430.72
2023-02-25T17:16:15.068Z,99433.94
2023-02-25T17:19:05.102Z,99447.28
2023-02-25T17:21:56.668Z,99452.56
2023-02-25T17:24:45.921Z,99480.66
2023-02-25T17:27:35.115Z,99474.38
2023-02-25T17:30:42.590Z,99472.38
2023-02-25T17:33:32.048Z,99474.91
2023-02-25T17:36:23.715Z,99373.25
2023-02-25T17:39:16.646Z,99468.03
2023-02-25T17:42:34.753Z,99482.72
2023-02-25T17:45:44.228Z,99491.44
2023-02-25T17:48:41.074Z,99490.88
2023-02-25T17:51:33.474Z,99496.56
2023-02-25T17:54:25.721Z,99495.47
2023-02-25T17:57:17.841Z,99471.16
2023-02-25T18:00:14.007Z,99501.03
2023-02-25T18:03:15.998Z,99504.78
2023-02-25T18:06:04.757Z,99501.16
2023-02-25T18:09:02.760Z,99524.88
2023-02-25T18:11:54.962Z,99514.63
2023-02-25T18:14:48.037Z,99534.19
2023-02-25T18:17:38.145Z,99534.13
2023-02-25T18:20:29.198Z,99528.44
2023-02-25T18:23:28.288Z,99535.94
2023-02-25T18:26:18.596Z,99528.25
2023-02-25T18:29:11.158Z,99534.69
2023-02-25T18:31:59.799Z,99546.75
2023-02-25T18:34:48.571Z,99504.88
2023-02-25T18:37:37.170Z,99549.69
2023-02-25T18:40:29.597Z,99489.16
2023-02-25T18:43:19.764Z,99546.00
2023-02-25T18:46:09.571Z,99545.16
2023-02-25T18:48:58.187Z,99552.03
2023-02-25T18:51:48.229Z,99544.91
2023-02-25T18:54:36.686Z,99529.13
2023-02-25T18:57:26.407Z,99553.59
2023-02-25T19:00:16.525Z,99551.91
2023-02-25T19:02:48.303Z,99552.44
2023-02-25T19:05:17.159Z,99533.06
2023-02-25T19:07:45.881Z,99557.59
2023-02-25T19:10:16.917Z,99571.59
2023-02-25T19:12:48.506Z,99567.78
2023-02-25T19:15:19.152Z,99569.88
2023-02-25T19:17:49.427Z,99580.84
2023-02-25T19:20:19.796Z,99577.44
2023-02-25T19:22:49.928Z,99586.88
2023-02-25T19:25:20.093Z,99588.25
2023-02-25T19:27:49.439Z,99598.34
2023-02-25T19:30:19.953Z,99607.88
2023-02-25T19:32:49.587Z,99596.16
2023-02-25T19:35:18.765Z,99597.13
2023-02-25T19:37:47.118Z,99606.03
2023-02-25T19:40:16.979Z,99610.53
2023-02-25T19:42:45.689Z,99608.69
2023-02-25T19:45:16.395Z,99611.06
2023-02-25T19:47:44.784Z,99628.28
2023-02-25T19:50:15.358Z,99626.94
2023-02-25T19:52:44.303Z,99629.47
2023-02-25T19:55:14.195Z,99628.53
2023-02-25T19:57:42.833Z,99641.34
2023-02-25T20:00:14.883Z,99649.19
2023-02-25T20:02:43.633Z,99641.75
2023-02-25T20:05:14.531Z,99621.53
2023-02-25T20:07:43.219Z,99659.94
2023-02-25T20:10:13.661Z,99666.06
2023-02-25T20:12:42.686Z,99667.25
2023-02-25T20:15:29.414Z,99672.41
2023-02-25T20:18:17.877Z,99674.44
2023-02-25T20:21:08.026Z,99680.63
2023-02-25T20:23:58.813Z,99695.94
2023-02-25T20:26:47.379Z,99674.38
2023-02-25T20:29:35.949Z,99693.66
2023-02-25T20:32:24.533Z,99695.22
2023-02-25T20:35:16.908Z,99694.91
2023-02-25T20:38:16.945Z,99695.91
2023-02-25T20:41:05.801Z,99700.88
2023-02-25T20:43:54.479Z,99711.44
2023-02-25T20:46:43.957Z,99711.13
2023-02-25T20:49:32.906Z,99728.59
2023-02-25T20:52:21.880Z,99668.88
2023-02-25T20:55:12.197Z,99724.13
2023-02-25T20:58:00.755Z,99731.56
2023-02-25T21:00:49.275Z,99710.25
2023-02-25T21:03:37.845Z,99718.66
2023-02-25T21:06:27.261Z,99716.03
2023-02-25T21:09:15.822Z,99716.88
2023-02-25T21:12:06.924Z,99717.56
2023-02-25T21:14:55.422Z,99723.84
2023-02-25T21:17:43.952Z,99733.13
2023-02-25T21:20:32.446Z,99742.75
2023-02-25T21:23:20.986Z,99745.56
2023-02-25T21:26:10.474Z,99741.09
2023-02-25T21:29:00.329Z,99737.78
2023-02-25T21:31:48.900Z,99739.78
2023-02-25T21:34:37.773Z,99753.53
2023-02-25T21:37:26.904Z,99763.63
2023-02-25T21:40:15.518Z,99770.56
2023-02-25T21:43:04.386Z,99767.59
2023-02-25T21:45:58.419Z,99771.38
2023-02-25T21:48:47.461Z,99769.56
2023-02-25T21:51:35.968Z,99773.84
2023-02-25T21:54:24.414Z,99772.88
2023-02-25T21:57:13.004Z,99774.53
2023-02-25T22:00:01.840Z,99777.19
2023-02-25T22:02:51.769Z,99779.63
2023-02-25T22:05:40.433Z,99783.78
2023-02-25T22:08:28.956Z,99776.97
2023-02-25T22:11:19.217Z,99775.19
2023-02-25T22:14:09.418Z,99790.41
2023-02-25T22:16:57.947Z,99759.28
2023-02-25T22:19:47.805Z,99781.31
2023-02-25T22:22:40.633Z,99787.25
2023-02-25T22:25:29.135Z,99780.94
2023-02-25T22:28:17.869Z,99788.41
2023-02-25T22:31:06.941Z,99791.34
2023-02-25T22:33:56.829Z,99778.09
2023-02-25T22:36:47.689Z,99788.38
2023-02-25T22:39:36.236Z,99781.44
2023-02-25T22:42:24.948Z,99724.88
2023-02-25T22:45:13.538Z,99784.19
2023-02-25T22:48:02.048Z,99794.31
2023-02-25T22:50:50.901Z,99798.59
2023-02-25T22:53:41.825Z,99799.59
2023-02-25T22:56:30.298Z,99800.09
2023-02-25T22:59:19.763Z,99799.13
2023-02-25T23:02:08.158Z,99789.97
2023-02-25T23:04:56.632Z,99798.28
2023-02-25T23:07:45.174Z,99807.53
2023-02-25T23:10:36.079Z,99806.53
2023-02-25T23:13:24.605Z,99807.53
2023-02-25T23:16:13.912Z,99815.97
2023-02-25T23:19:04.588Z,99804.22
2023-02-25T23:21:53.131Z,99814.59
2023-02-25T23:24:41.584Z,99816.59
2023-02-25T23:27:31.685Z,99818.69
2023-02-25T23:30:20.142Z,99790.31
2023-02-25T23:33:08.786Z,99812.09
2023-02-25T23:35:57.882Z,99824.47
2023-02-25T23:38:46.299Z,99816.34
2023-02-25T23:41:35.158Z,99824.63
2023-02-25T23:44:25.285Z,99817.00
2023-02-25T23:47:13.929Z,99810.38
2023-02-25T23:50:02.553Z,99818.78
2023-02-25T23:52:51.100Z,99823.13
2023-02-25T23:55:39.564Z,99813.03
2023-02-25T23:58:28.050Z,99820.94
